Time;durP1;ratioP1;P1;durP2;ratioP2;P2;SDS_P1;SDS_P2;PMS_P1;PMS_P2;Temp;Humidity;BMP_temperature;BMP_pressure;BME280_temperature;BME280_humidity;BME280_pressure;Samples;Min_cycle;Max_cycle;Signal;HPM_P1;HPM_P2
2022/06/22 00:00:40;;;;;;;3.30;0.90;;;18.60;59.20;;;;;;5056350;28;20518;-70
2022/06/22 00:03:10;;;;;;;1.20;0.50;;;18.60;59.20;;;;;;5060475;28;20114;-74
2022/06/22 00:05:44;;;;;;;3.30;0.88;;;18.60;59.10;;;;;;5059497;28;20048;-74
2022/06/22 00:08:17;;;;;;;1.05;0.70;;;18.70;58.90;;;;;;5058309;28;20121;-73
2022/06/22 00:10:51;;;;;;;1.65;1.10;;;18.70;58.90;;;;;;5056927;28;20080;-72
2022/06/22 00:17:19;;;;;;;4.72;0.68;;;18.80;58.90;;;;;;5059587;28;20117;-68
2022/06/22 00:19:47;;;;;;;3.15;0.73;;;18.80;58.80;;;;;;5058182;28;20539;-72
2022/06/22 00:22:19;;;;;;;2.22;0.80;;;18.80;58.90;;;;;;5058495;28;20515;-70
2022/06/22 00:24:54;;;;;;;1.48;0.70;;;18.80;59.10;;;;;;5057225;28;20086;-72
2022/06/22 00:27:29;;;;;;;0.95;0.65;;;18.80;59.10;;;;;;5058502;28;20052;-73
2022/06/22 00:30:20;;;;;;;1.63;0.63;;;18.80;59.10;;;;;;5059000;28;20070;-69
2022/06/22 01:17:08;;;;;;;0.93;0.80;;;18.50;61.40;;;;;;5032854;28;20067;-70
2022/06/22 01:19:47;;;;;;;2.20;1.15;;;18.40;61.60;;;;;;5057549;28;20041;-71
2022/06/22 01:22:28;;;;;;;2.05;0.88;;;18.40;61.70;;;;;;5058411;28;20051;-69
2022/06/22 01:25:03;;;;;;;2.38;0.88;;;18.30;61.80;;;;;;5058369;28;20045;-69
2022/06/22 01:27:34;;;;;;;4.65;1.40;;;18.20;62.10;;;;;;5057653;28;20045;-72
2022/06/22 01:30:04;;;;;;;1.90;0.98;;;18.20;62.30;;;;;;5052084;28;20052;-68
2022/06/22 01:32:35;;;;;;;3.15;1.10;;;18.20;62.50;;;;;;5046531;28;20073;-68
2022/06/22 01:35:05;;;;;;;2.38;1.13;;;18.20;62.30;;;;;;5043689;28;20053;-73
2022/06/22 01:37:34;;;;;;;2.40;0.90;;;18.10;62.30;;;;;;5048810;28;20128;-70
2022/06/22 01:40:11;;;;;;;1.67;0.80;;;18.10;62.40;;;;;;5044997;28;20064;-69
2022/06/22 01:42:46;;;;;;;2.58;0.70;;;18.10;62.60;;;;;;5049266;28;20043;-74
2022/06/22 01:45:23;;;;;;;3.22;0.88;;;18.10;62.80;;;;;;5048948;28;20499;-69
2022/06/22 01:47:54;;;;;;;1.95;0.90;;;17.90;62.90;;;;;;5047465;28;20111;-69
2022/06/22 01:50:30;;;;;;;1.98;0.80;;;18.00;62.90;;;;;;5047594;28;20045;-72
2022/06/22 01:53:06;;;;;;;3.80;0.80;;;18.00;62.80;;;;;;5042867;28;20041;-71
2022/06/22 01:55:40;;;;;;;2.05;0.63;;;17.90;62.70;;;;;;5047529;28;20044;-70
2022/06/22 01:58:40;;;;;;;2.53;0.80;;;17.90;62.70;;;;;;5043296;28;20517;-72
2022/06/22 02:01:15;;;;;;;3.83;1.15;;;17.90;62.60;;;;;;5045059;28;20055;-71
2022/06/22 02:03:46;;;;;;;1.38;0.70;;;17.90;62.90;;;;;;5054166;28;20052;-72
2022/06/22 02:09:09;;;;;;;1.10;0.75;;;17.70;63.20;;;;;;5054861;28;20488;-71
2022/06/22 02:11:40;;;;;;;2.33;0.90;;;17.70;63.20;;;;;;5048345;28;20049;-69
2022/06/22 02:14:15;;;;;;;2.85;1.13;;;17.70;63.10;;;;;;5048201;28;20068;-70
2022/06/22 02:16:47;;;;;;;1.73;0.93;;;17.70;63.10;;;;;;5052921;28;20607;-73
2022/06/22 02:19:16;;;;;;;2.20;0.90;;;17.60;63.40;;;;;;5054130;28;20053;-72
2022/06/22 02:21:46;;;;;;;2.28;0.70;;;17.60;63.70;;;;;;5055089;28;20068;-69
2022/06/22 02:24:17;;;;;;;2.30;0.88;;;17.50;63.70;;;;;;5055653;28;20076;-72
2022/06/22 02:26:48;;;;;;;3.38;1.00;;;17.60;63.80;;;;;;5053687;28;20456;-69
2022/06/22 02:29:19;;;;;;;4.65;0.93;;;17.50;63.90;;;;;;5058098;28;20040;-74
2022/06/22 02:31:46;;;;;;;1.17;0.70;;;17.60;64.20;;;;;;5054482;28;20132;-69
2022/06/22 02:34:17;;;;;;;3.22;1.35;;;17.50;64.50;;;;;;5052608;28;20367;-72
2022/06/22 02:36:47;;;;;;;1.63;0.98;;;17.50;64.50;;;;;;5044999;28;20144;-70
2022/06/22 02:39:15;;;;;;;3.70;0.80;;;17.40;64.80;;;;;;5049732;28;20041;-69
2022/06/22 02:44:34;;;;;;;1.23;0.73;;;17.40;65.20;;;;;;5043575;28;20041;-74
2022/06/22 02:47:15;;;;;;;1.88;0.88;;;17.40;65.30;;;;;;5048065;28;20041;-72
2022/06/22 02:49:45;;;;;;;2.20;0.80;;;17.40;65.30;;;;;;5052456;28;20059;-69
2022/06/22 02:52:16;;;;;;;4.00;1.10;;;17.40;65.20;;;;;;5053877;28;20036;-72
2022/06/22 02:54:47;;;;;;;1.95;0.95;;;17.40;65.00;;;;;;5055517;28;20408;-69
2022/06/22 02:57:22;;;;;;;2.00;1.15;;;17.40;65.00;;;;;;5052955;28;20516;-69
2022/06/22 02:59:51;;;;;;;2.40;0.90;;;17.30;64.90;;;;;;5056307;28;20048;-72
2022/06/22 03:02:21;;;;;;;3.08;1.00;;;17.30;64.90;;;;;;5051174;28;20076;-72
2022/06/22 03:04:50;;;;;;;1.10;0.75;;;17.20;64.90;;;;;;5057191;28;20105;-74
2022/06/22 03:07:19;;;;;;;3.35;1.20;;;17.20;64.90;;;;;;5061429;28;20079;-69
2022/06/22 03:09:47;;;;;;;1.90;0.80;;;17.10;65.20;;;;;;5061183;28;20044;-72
2022/06/22 03:12:16;;;;;;;0.77;0.60;;;17.10;65.00;;;;;;5043085;28;20533;-70
2022/06/22 03:14:52;;;;;;;1.58;0.93;;;17.10;64.90;;;;;;5059304;28;20136;-70
2022/06/22 03:17:24;;;;;;;2.90;0.90;;;17.10;64.90;;;;;;5052511;28;20055;-69
2022/06/22 03:19:57;;;;;;;1.02;0.80;;;17.10;65.10;;;;;;5060335;28;20051;-71
2022/06/22 03:22:27;;;;;;;2.17;0.88;;;17.10;65.20;;;;;;5046362;28;20600;-72
2022/06/22 03:25:01;;;;;;;1.90;0.80;;;17.10;65.10;;;;;;5051741;28;20123;-69
2022/06/22 03:27:35;;;;;;;1.52;0.65;;;17.10;65.40;;;;;;5058976;28;20136;-69
2022/06/22 03:30:07;;;;;;;3.30;0.95;;;17.10;65.80;;;;;;5059092;28;20103;-73
2022/06/22 03:32:38;;;;;;;2.15;1.02;;;17.10;66.10;;;;;;5057645;28;20045;-69
2022/06/22 03:35:10;;;;;;;1.75;0.77;;;17.00;66.30;;;;;;5057730;28;20053;-68
2022/06/22 03:37:44;;;;;;;3.72;1.08;;;17.10;66.50;;;;;;5059502;28;20045;-72
2022/06/22 03:40:14;;;;;;;3.55;1.05;;;17.10;66.60;;;;;;5055256;28;20051;-71
2022/06/22 03:42:50;;;;;;;4.60;1.13;;;17.00;66.60;;;;;;5055863;28;20053;-72
2022/06/22 03:45:22;;;;;;;2.67;0.80;;;17.00;66.60;;;;;;5055215;28;20571;-72
2022/06/22 03:47:56;;;;;;;2.88;1.00;;;17.00;66.50;;;;;;5056781;28;20057;-72
2022/06/22 03:50:32;;;;;;;3.22;1.42;;;17.00;66.20;;;;;;5055335;28;20044;-72
2022/06/22 03:53:06;;;;;;;3.70;1.25;;;17.00;66.20;;;;;;5051443;28;20045;-69
2022/06/22 03:55:36;;;;;;;2.40;1.15;;;17.00;66.20;;;;;;5057996;28;20575;-69
2022/06/22 03:58:04;;;;;;;3.83;0.88;;;17.00;66.20;;;;;;5054892;28;20464;-72
2022/06/22 04:00:35;;;;;;;1.58;1.00;;;17.00;66.30;;;;;;5051641;28;20041;-69
2022/06/22 04:03:05;;;;;;;1.15;0.73;;;17.00;66.40;;;;;;5051454;28;20584;-69
2022/06/22 04:05:39;;;;;;;2.45;1.05;;;16.90;66.50;;;;;;5045645;28;20055;-70
2022/06/22 04:08:07;;;;;;;5.47;1.40;;;16.90;66.60;;;;;;5047265;28;20627;-69
2022/06/22 04:10:41;;;;;;;3.58;1.27;;;17.00;66.50;;;;;;5042337;28;20044;-70
2022/06/22 04:13:15;;;;;;;1.55;0.88;;;17.10;66.60;;;;;;5048836;28;20052;-71
2022/06/22 04:15:52;;;;;;;6.30;1.48;;;17.00;66.60;;;;;;5047371;28;20065;-70
2022/06/22 04:18:22;;;;;;;1.90;0.95;;;17.10;66.80;;;;;;5018782;28;20512;-71
2022/06/22 04:20:52;;;;;;;3.30;1.02;;;17.10;67.00;;;;;;5047614;28;20049;-69
2022/06/22 04:23:32;;;;;;;4.13;1.30;;;17.10;67.10;;;;;;5049806;28;20048;-70
2022/06/22 04:26:05;;;;;;;4.32;1.13;;;17.20;66.70;;;;;;5045650;28;20219;-71
2022/06/22 04:28:35;;;;;;;1.95;0.90;;;17.30;66.50;;;;;;5045163;28;20469;-68
2022/06/22 04:31:05;;;;;;;;;;;17.30;66.60;;;;;;5049159;28;20044;-72
2022/06/22 04:33:39;;;;;;;2.17;1.10;;;17.30;66.90;;;;;;5051728;28;19921;-73
2022/06/22 04:36:10;;;;;;;3.03;1.13;;;17.30;67.00;;;;;;5047755;28;20051;-71
2022/06/22 04:38:42;;;;;;;3.20;1.33;;;17.30;66.70;;;;;;5048116;28;20563;-73
2022/06/22 04:41:25;;;;;;;4.38;0.88;;;17.30;66.40;;;;;;5046330;28;20055;-70
2022/06/22 04:43:54;;;;;;;3.03;0.90;;;17.30;65.80;;;;;;5048485;28;20134;-73
2022/06/22 04:46:27;;;;;;;4.03;1.05;;;17.40;65.50;;;;;;5047892;28;20075;-69
2022/06/22 04:48:58;;;;;;;5.22;1.05;;;17.30;65.70;;;;;;5047000;28;20098;-72
2022/06/22 04:51:29;;;;;;;1.63;0.90;;;17.40;65.90;;;;;;5048289;28;20053;-72
2022/06/22 04:54:01;;;;;;;3.50;1.10;;;17.50;65.90;;;;;;5048265;28;20469;-69
2022/06/22 04:56:32;;;;;;;1.52;0.82;;;17.50;66.00;;;;;;5045671;28;20095;-72
2022/06/22 04:59:01;;;;;;;2.25;0.95;;;17.50;66.10;;;;;;5044917;28;20131;-69
2022/06/22 05:01:34;;;;;;;3.88;0.93;;;17.50;66.30;;;;;;5046230;28;20054;-73
2022/06/22 05:04:06;;;;;;;2.55;0.90;;;17.50;66.30;;;;;;5046650;28;20052;-73
2022/06/22 05:06:40;;;;;;;3.20;0.90;;;17.50;66.70;;;;;;5047341;28;20049;-70
2022/06/22 05:09:15;;;;;;;2.50;0.88;;;17.50;66.80;;;;;;5044505;28;20465;-69
2022/06/22 05:11:45;;;;;;;4.05;1.42;;;17.50;66.40;;;;;;5043808;28;20052;-72
2022/06/22 05:14:17;;;;;;;2.90;1.02;;;17.60;66.00;;;;;;5049132;28;20145;-69
2022/06/22 05:16:50;;;;;;;2.47;0.82;;;17.60;65.80;;;;;;5043047;28;20050;-72
2022/06/22 05:19:18;;;;;;;5.45;1.15;;;17.60;65.50;;;;;;5045018;28;20077;-69
2022/06/22 05:21:45;;;;;;;3.20;1.08;;;17.70;65.30;;;;;;5045602;28;20049;-75
2022/06/22 05:24:20;;;;;;;4.15;1.30;;;17.80;65.00;;;;;;5044946;28;20094;-69
2022/06/22 05:26:49;;;;;;;4.03;0.85;;;17.80;64.90;;;;;;5046565;28;20291;-73
2022/06/22 05:29:22;;;;;;;2.88;1.27;;;17.90;64.90;;;;;;5046223;28;20044;-72
2022/06/22 05:31:54;;;;;;;1.40;0.85;;;17.90;64.90;;;;;;5044262;28;20535;-70
2022/06/22 05:34:31;;;;;;;3.22;0.90;;;17.90;65.00;;;;;;5045182;28;20057;-69
2022/06/22 05:37:03;;;;;;;2.08;1.00;;;18.00;65.00;;;;;;5046152;28;20049;-75
2022/06/22 05:39:32;;;;;;;2.92;1.15;;;18.00;64.90;;;;;;5045950;28;20481;-72
2022/06/22 05:42:00;;;;;;;5.28;1.10;;;18.10;64.80;;;;;;5047806;28;20048;-73
2022/06/22 05:44:28;;;;;;;3.00;1.23;;;18.10;64.70;;;;;;5046544;28;20953;-72
2022/06/22 05:46:59;;;;;;;2.85;1.10;;;18.10;64.70;;;;;;5045201;28;20471;-68
2022/06/22 05:49:32;;;;;;;2.25;1.10;;;18.20;64.70;;;;;;5043170;28;20055;-72
2022/06/22 05:52:03;;;;;;;4.28;1.70;;;18.20;64.40;;;;;;5046232;28;20396;-70
2022/06/22 05:54:40;;;;;;;4.45;2.05;;;18.30;64.40;;;;;;5039008;28;20052;-70
2022/06/22 05:57:16;;;;;;;5.85;2.10;;;18.30;64.50;;;;;;5043025;28;20045;-70
2022/06/22 05:59:48;;;;;;;8.23;2.60;;;18.40;64.30;;;;;;5046316;28;20059;-72
2022/06/22 06:02:29;;;;;;;9.10;3.63;;;18.40;64.40;;;;;;5046706;28;20501;-70
2022/06/22 06:05:05;;;;;;;6.63;2.80;;;18.50;64.50;;;;;;5046318;28;20056;-72
2022/06/22 06:07:36;;;;;;;6.90;2.30;;;18.60;64.80;;;;;;5048324;28;20189;-72
2022/06/22 06:10:11;;;;;;;7.53;2.20;;;18.60;64.90;;;;;;5043819;28;20054;-71
2022/06/22 06:12:43;;;;;;;5.10;2.50;;;18.60;64.60;;;;;;5046397;28;20552;-72
2022/06/22 06:15:14;;;;;;;3.78;1.73;;;18.70;64.30;;;;;;5050103;28;20049;-71
2022/06/22 06:17:45;;;;;;;6.10;2.30;;;18.80;64.00;;;;;;5046634;28;20061;-68
2022/06/22 06:20:19;;;;;;;8.85;2.40;;;18.80;63.70;;;;;;5046650;28;20049;-70
2022/06/22 06:22:48;;;;;;;4.30;1.75;;;19.00;63.60;;;;;;5042093;28;20049;-72
2022/06/22 06:28:14;;;;;;;5.68;1.50;;;19.10;63.40;;;;;;5048766;28;20404;-71
2022/06/22 06:30:45;;;;;;;4.20;1.80;;;19.10;63.20;;;;;;5045275;28;20489;-69
2022/06/22 06:33:21;;;;;;;4.10;1.75;;;19.20;63.00;;;;;;5048626;28;20060;-72
2022/06/22 06:35:52;;;;;;;6.03;2.28;;;19.20;63.20;;;;;;5047319;28;20051;-73
2022/06/22 06:38:25;;;;;;;7.18;2.08;;;19.30;63.30;;;;;;5047673;28;20045;-71
2022/06/22 06:41:01;;;;;;;5.53;2.40;;;19.40;62.90;;;;;;5048677;28;20044;-72
2022/06/22 06:43:43;;;;;;;9.27;2.85;;;19.50;62.70;;;;;;5051139;28;20072;-73
2022/06/22 06:46:24;;;;;;;8.32;2.90;;;19.60;62.10;;;;;;5048908;28;20064;-69
2022/06/22 06:48:59;;;;;;;8.27;3.30;;;19.80;61.30;;;;;;5048576;28;20052;-73
2022/06/22 06:51:30;;;;;;;6.97;2.80;;;19.90;61.20;;;;;;5051276;28;20057;-73
2022/06/22 06:54:02;;;;;;;12.18;5.20;;;20.00;61.10;;;;;;5052621;28;20044;-68
2022/06/22 06:56:34;;;;;;;15.70;6.15;;;20.10;61.20;;;;;;5059978;28;20048;-69
2022/06/22 06:59:06;;;;;;;11.73;4.82;;;20.20;60.60;;;;;;5055827;28;20163;-72
2022/06/22 07:01:38;;;;;;;10.40;4.68;;;20.30;60.60;;;;;;5044572;28;20053;-72
2022/06/22 07:04:12;;;;;;;10.43;4.57;;;20.40;60.50;;;;;;5045462;28;20126;-70
2022/06/22 07:06:40;;;;;;;12.80;6.13;;;20.60;60.90;;;;;;5058879;28;20127;-71
2022/06/22 07:09:14;;;;;;;10.10;4.60;;;20.70;59.70;;;;;;5056589;28;20055;-71
2022/06/22 07:11:45;;;;;;;7.10;3.05;;;20.80;60.00;;;;;;5052328;28;20595;-73
2022/06/22 07:14:17;;;;;;;7.07;2.78;;;21.00;59.40;;;;;;5054038;28;20045;-69
2022/06/22 07:16:44;;;;;;;5.68;2.60;;;21.20;58.80;;;;;;5053030;28;20073;-69
2022/06/22 07:19:19;;;;;;;8.48;4.45;;;21.30;58.60;;;;;;5046032;28;20055;-72
2022/06/22 07:21:58;;;;;;;8.68;3.33;;;21.50;58.00;;;;;;5048231;28;20052;-72
2022/06/22 07:24:30;;;;;;;7.50;3.13;;;21.60;57.70;;;;;;5048064;28;20470;-73
2022/06/22 07:27:02;;;;;;;6.45;2.45;;;21.90;58.20;;;;;;5048329;28;20071;-73
2022/06/22 07:29:36;;;;;;;5.50;2.20;;;22.10;56.00;;;;;;5047221;28;20132;-73
2022/06/22 07:32:13;;;;;;;3.78;1.70;;;22.10;56.80;;;;;;5047045;28;20048;-71
2022/06/22 07:34:49;;;;;;;3.92;1.73;;;22.30;55.20;;;;;;5048007;28;20040;-69
2022/06/22 07:37:34;;;;;;;6.65;1.90;;;22.40;54.80;;;;;;5047486;28;20481;-72
2022/06/22 07:40:06;;;;;;;4.95;2.05;;;22.60;54.60;;;;;;5049425;28;20068;-69
2022/06/22 07:42:34;;;;;;;6.03;1.90;;;22.70;54.80;;;;;;5049634;28;20049;-73
2022/06/22 07:45:01;;;;;;;5.45;2.08;;;22.90;54.10;;;;;;5043426;28;20580;-72
2022/06/22 07:47:36;;;;;;;6.60;2.90;;;23.10;53.50;;;;;;5048550;28;20045;-71
2022/06/22 07:50:12;;;;;;;6.15;2.28;;;23.20;53.10;;;;;;5049424;28;20130;-69
2022/06/22 07:52:44;;;;;;;5.93;2.10;;;23.30;52.90;;;;;;5046786;28;20037;-68
2022/06/22 07:55:22;;;;;;;5.15;1.52;;;23.40;52.00;;;;;;5045431;28;20520;-68
2022/06/22 07:57:59;;;;;;;3.78;1.90;;;23.60;51.50;;;;;;5047478;28;20056;-71
2022/06/22 08:00:28;;;;;;;5.85;1.65;;;23.70;51.40;;;;;;5045059;28;20139;-69
2022/06/22 08:03:01;;;;;;;8.40;1.90;;;23.80;51.60;;;;;;5045615;28;20044;-72
2022/06/22 08:05:33;;;;;;;4.32;1.52;;;23.90;50.90;;;;;;5045845;28;21194;-70
2022/06/22 08:08:05;;;;;;;3.33;1.40;;;24.00;50.50;;;;;;5047772;28;20052;-71
2022/06/22 08:10:38;;;;;;;3.22;1.52;;;24.10;50.70;;;;;;5048659;28;20058;-70
2022/06/22 08:13:11;;;;;;;6.03;1.73;;;24.20;49.90;;;;;;5049446;28;20045;-68
2022/06/22 08:15:42;;;;;;;4.07;1.30;;;24.30;50.10;;;;;;5048076;28;20128;-71
2022/06/22 08:18:11;;;;;;;3.83;1.25;;;24.50;50.40;;;;;;5048804;28;20115;-72
2022/06/22 08:20:42;;;;;;;4.00;1.43;;;24.60;49.70;;;;;;5052293;28;20052;-72
2022/06/22 08:23:17;;;;;;;3.67;1.58;;;24.70;49.60;;;;;;5054012;28;20107;-72
2022/06/22 08:25:46;;;;;;;2.53;1.13;;;24.80;48.80;;;;;;5055611;28;20443;-70
2022/06/22 08:28:14;;;;;;;2.33;1.07;;;24.90;49.00;;;;;;5055377;28;20049;-69
2022/06/22 08:30:42;;;;;;;1.45;0.95;;;25.00;49.50;;;;;;5051587;28;20045;-69
2022/06/22 08:33:14;;;;;;;3.75;1.00;;;25.10;49.50;;;;;;5049117;28;20407;-74
2022/06/22 08:35:46;;;;;;;2.97;1.20;;;25.20;48.50;;;;;;5043054;28;20041;-71
2022/06/22 08:38:20;;;;;;;5.93;1.30;;;25.30;47.70;;;;;;5043272;28;20072;-72
2022/06/22 08:40:55;;;;;;;3.33;1.30;;;25.40;47.80;;;;;;5043407;28;20041;-69
2022/06/22 08:43:28;;;;;;;3.63;1.40;;;25.50;48.30;;;;;;5046637;28;20083;-73
2022/06/22 08:46:25;;;;;;;3.80;1.80;;;25.60;47.90;;;;;;5045711;28;20154;-69
2022/06/22 08:49:27;;;;;;;4.65;1.88;;;25.70;46.30;;;;;;5045180;28;20056;-71
2022/06/22 08:52:21;;;;;;;5.40;1.63;;;25.80;46.70;;;;;;5015586;28;20063;-71
2022/06/22 08:55:02;;;;;;;4.70;1.85;;;25.90;46.40;;;;;;5043411;28;20040;-72
2022/06/22 08:57:41;;;;;;;4.70;2.00;;;26.00;46.30;;;;;;5046488;28;20587;-71
2022/06/22 09:00:19;;;;;;;4.28;1.70;;;26.10;45.60;;;;;;5043391;28;20045;-71
2022/06/22 09:03:07;;;;;;;7.63;2.47;;;26.10;45.50;;;;;;5048731;28;20040;-71
2022/06/22 09:06:00;;;;;;;6.27;2.97;;;26.20;45.20;;;;;;5046710;28;20048;-74
2022/06/22 09:08:53;;;;;;;6.50;2.65;;;26.30;45.10;;;;;;5045660;28;20119;-70
2022/06/22 09:11:28;;;;;;;4.72;2.17;;;26.30;45.50;;;;;;5043042;28;20051;-69
2022/06/22 09:14:18;;;;;;;4.35;1.95;;;26.50;44.40;;;;;;5048534;28;20044;-70
2022/06/22 09:17:00;;;;;;;4.50;2.03;;;26.60;44.20;;;;;;5032923;28;20505;-70
2022/06/22 09:19:45;;;;;;;3.92;2.08;;;26.70;43.60;;;;;;5048185;28;20136;-74
2022/06/22 09:22:16;;;;;;;6.72;2.60;;;26.80;44.00;;;;;;5047104;28;20052;-69
2022/06/22 09:24:58;;;;;;;3.88;1.88;;;26.90;43.40;;;;;;5047346;28;20056;-70
2022/06/22 09:27:37;;;;;;;5.63;2.40;;;27.00;42.60;;;;;;5047497;28;20467;-71
2022/06/22 09:30:14;;;;;;;4.97;2.20;;;27.00;42.40;;;;;;5049735;28;20064;-68
2022/06/22 09:33:05;;;;;;;3.65;1.80;;;27.00;42.00;;;;;;5049171;28;20068;-72
2022/06/22 09:35:54;;;;;;;6.38;2.35;;;27.10;41.70;;;;;;5051774;28;20071;-72
2022/06/22 09:38:52;;;;;;;4.67;1.77;;;27.10;41.70;;;;;;5051412;28;20075;-72
2022/06/22 09:41:33;;;;;;;4.13;2.67;;;27.10;41.90;;;;;;5037784;28;20456;-70
2022/06/22 09:44:17;;;;;;;5.45;2.58;;;27.10;41.80;;;;;;5053442;28;20055;-69
2022/06/22 09:47:20;;;;;;;4.65;2.22;;;27.20;41.20;;;;;;5054352;28;20052;-72
2022/06/22 09:50:21;;;;;;;4.22;1.98;;;27.20;41.60;;;;;;5048147;28;20090;-72
2022/06/22 09:53:18;;;;;;;6.53;2.92;;;27.10;41.80;;;;;;5050132;28;20487;-70
2022/06/22 09:56:22;;;;;;;5.93;2.75;;;27.20;41.50;;;;;;5046083;28;20041;-71
2022/06/22 09:59:24;;;;;;;6.45;2.47;;;27.20;41.80;;;;;;5046879;28;20152;-69
2022/06/22 10:01:59;;;;;;;4.30;2.05;;;27.20;41.60;;;;;;5048229;28;20067;-74
2022/06/22 10:05:00;;;;;;;5.18;2.33;;;27.30;41.60;;;;;;5049105;28;20076;-68
2022/06/22 10:07:42;;;;;;;4.20;2.00;;;27.20;41.40;;;;;;5048690;28;21235;-69
2022/06/22 10:10:23;;;;;;;3.30;1.70;;;27.20;41.60;;;;;;5051574;28;20555;-70
2022/06/22 10:13:25;;;;;;;3.95;1.80;;;27.20;41.80;;;;;;5052566;28;20125;-73
2022/06/22 10:16:16;;;;;;;5.93;2.20;;;27.20;41.70;;;;;;5049501;28;20057;-71
2022/06/22 10:18:58;;;;;;;7.68;2.10;;;27.20;41.40;;;;;;5049249;28;20048;-70
2022/06/22 10:21:39;;;;;;;6.50;1.90;;;27.30;41.20;;;;;;5045321;28;20555;-73
2022/06/22 10:24:22;;;;;;;6.60;2.90;;;27.30;41.20;;;;;;5046636;28;20144;-73
2022/06/22 10:27:03;;;;;;;9.57;4.30;;;27.50;42.00;;;;;;5043887;28;20064;-71
2022/06/22 10:30:07;;;;;;;5.85;2.90;;;27.60;41.40;;;;;;5046139;28;20140;-73
2022/06/22 10:32:52;;;;;;;7.55;2.83;;;27.70;40.50;;;;;;5042763;28;20135;-72
2022/06/22 10:35:39;;;;;;;6.93;4.15;;;27.60;40.50;;;;;;5047610;28;20044;-69
2022/06/22 10:38:23;;;;;;;7.38;3.05;;;27.70;41.20;;;;;;5043444;28;20053;-71
2022/06/22 10:47:05;;;;;;;4.90;2.40;;;27.60;40.30;;;;;;5050162;28;20488;-71
2022/06/22 10:49:52;;;;;;;5.45;2.70;;;27.70;40.40;;;;;;5042742;28;20477;-71
2022/06/22 10:52:52;;;;;;;8.63;2.45;;;27.80;40.70;;;;;;5045816;28;20500;-72
2022/06/22 10:55:55;;;;;;;5.20;2.53;;;27.80;39.80;;;;;;5054300;28;20041;-73
2022/06/22 10:58:48;;;;;;;5.53;2.33;;;27.80;39.90;;;;;;5052601;28;20053;-70
2022/06/22 11:01:33;;;;;;;7.18;3.33;;;27.80;39.90;;;;;;5049234;28;20458;-70
2022/06/22 11:04:45;;;;;;;9.02;4.03;;;27.80;39.90;;;;;;5051806;28;20053;-70
2022/06/22 11:07:45;;;;;;;8.30;3.80;;;28.00;40.00;;;;;;5043092;28;20500;-73
2022/06/22 11:10:37;;;;;;;7.75;3.83;;;28.10;40.00;;;;;;5054457;28;20551;-70
2022/06/22 11:13:30;;;;;;;6.63;3.22;;;28.20;39.20;;;;;;5051124;28;20060;-73
2022/06/22 11:16:07;;;;;;;6.88;3.38;;;28.20;38.80;;;;;;5044866;28;20584;-72
2022/06/22 11:18:56;;;;;;;5.47;2.88;;;28.20;39.00;;;;;;5044031;28;20063;-71
2022/06/22 11:21:34;;;;;;;5.60;2.00;;;28.10;39.00;;;;;;5050789;28;20499;-70
2022/06/22 11:24:22;;;;;;;5.20;2.45;;;28.00;39.10;;;;;;5044210;28;20049;-73
2022/06/22 11:33:15;;;;;;;7.70;3.72;;;28.10;39.10;;;;;;4972478;28;20039;-73
2022/06/22 11:35:55;;;;;;;5.72;3.50;;;28.10;38.90;;;;;;5039552;28;20144;-70
2022/06/22 11:39:04;;;;;;;5.47;2.67;;;28.20;38.60;;;;;;5056068;28;20036;-70
2022/06/22 11:41:52;;;;;;;4.93;2.25;;;28.30;38.20;;;;;;5051923;28;20049;-67
2022/06/22 11:47:53;;;;;;;3.55;1.73;;;28.30;37.80;;;;;;5043187;28;20053;-71
2022/06/22 11:50:30;;;;;;;4.00;2.00;;;28.30;38.00;;;;;;5051260;28;20044;-70
2022/06/22 11:53:10;;;;;;;3.47;1.77;;;28.10;38.10;;;;;;5048858;28;20048;-69
2022/06/22 11:55:43;;;;;;;5.03;1.73;;;28.10;38.20;;;;;;5050223;28;20149;-70
2022/06/22 11:58:38;;;;;;;4.38;1.60;;;28.00;38.40;;;;;;5046616;28;20402;-72
2022/06/22 12:01:36;;;;;;;4.05;1.73;;;28.00;38.40;;;;;;5041847;28;20564;-71
2022/06/22 12:04:38;;;;;;;3.40;1.40;;;27.90;38.20;;;;;;5044846;28;20103;-72
2022/06/22 12:07:30;;;;;;;4.20;1.30;;;28.00;38.20;;;;;;5055979;28;20060;-72
2022/06/22 12:10:11;;;;;;;2.05;1.20;;;28.10;37.60;;;;;;5058218;28;20037;-69
2022/06/22 12:13:06;;;;;;;3.15;1.30;;;28.20;37.30;;;;;;5059655;28;20048;-68
2022/06/22 12:15:49;;;;;;;3.45;1.38;;;28.30;37.20;;;;;;5057613;28;20120;-69
2022/06/22 12:18:34;;;;;;;3.90;1.50;;;28.30;37.10;;;;;;5059043;28;20040;-69
2022/06/22 12:21:26;;;;;;;4.78;1.23;;;28.20;37.30;;;;;;5051745;28;20097;-70
2022/06/22 12:23:59;;;;;;;3.42;1.35;;;28.10;37.50;;;;;;5057287;28;20572;-70
2022/06/22 12:26:42;;;;;;;4.40;1.40;;;28.10;37.80;;;;;;5056093;28;20523;-69
2022/06/22 12:29:25;;;;;;;5.60;1.40;;;28.20;37.40;;;;;;5057511;28;20485;-71
2022/06/22 12:31:58;;;;;;;4.47;1.20;;;28.10;37.40;;;;;;5056645;28;20520;-74
2022/06/22 12:34:30;;;;;;;2.22;1.10;;;28.00;37.10;;;;;;5059105;28;20105;-70
2022/06/22 12:37:01;;;;;;;3.33;1.05;;;28.00;37.40;;;;;;5054372;28;20041;-68
2022/06/22 12:39:34;;;;;;;2.42;1.05;;;28.00;37.60;;;;;;5057621;28;20469;-68
2022/06/22 12:42:14;;;;;;;3.83;1.48;;;28.10;36.70;;;;;;5056441;28;20125;-71
2022/06/22 12:45:04;;;;;;;3.90;1.42;;;28.10;37.00;;;;;;5057685;28;20051;-69
2022/06/22 12:48:08;;;;;;;2.22;1.10;;;28.10;36.70;;;;;;5059423;28;20451;-74
2022/06/22 12:50:52;;;;;;;3.55;1.23;;;28.30;36.80;;;;;;5036579;28;20048;-70
2022/06/22 12:53:26;;;;;;;2.35;1.20;;;28.40;36.30;;;;;;5058552;28;20378;-71
2022/06/22 12:55:57;;;;;;;2.22;1.27;;;28.50;35.20;;;;;;5060222;28;20101;-73
2022/06/22 12:58:30;;;;;;;1.77;0.77;;;28.50;35.30;;;;;;5059985;28;20036;-70
2022/06/22 13:00:59;;;;;;;2.65;1.20;;;28.50;35.20;;;;;;5051437;28;20531;-73
2022/06/22 13:03:35;;;;;;;4.05;0.98;;;28.50;35.60;;;;;;5057510;28;20413;-70
2022/06/22 13:06:03;;;;;;;1.20;0.85;;;28.40;35.90;;;;;;5057672;28;20053;-71
2022/06/22 13:08:30;;;;;;;3.15;0.93;;;28.30;36.10;;;;;;5059794;28;20045;-71
2022/06/22 13:11:03;;;;;;;6.45;1.40;;;28.30;35.90;;;;;;5060127;28;20098;-72
2022/06/22 13:13:35;;;;;;;3.33;1.33;;;28.30;35.70;;;;;;5057907;28;20079;-71
2022/06/22 13:16:11;;;;;;;1.17;0.90;;;28.20;36.10;;;;;;5059911;28;20095;-69
2022/06/22 13:18:47;;;;;;;1.50;1.00;;;28.20;36.70;;;;;;5057364;28;20059;-69
2022/06/22 13:21:19;;;;;;;3.22;1.05;;;28.10;36.70;;;;;;5056950;28;20049;-71
2022/06/22 13:23:52;;;;;;;1.33;0.82;;;28.10;36.70;;;;;;5059132;28;20504;-69
2022/06/22 13:26:31;;;;;;;2.78;0.93;;;28.10;36.50;;;;;;5059247;28;20442;-71
2022/06/22 13:29:08;;;;;;;2.13;0.98;;;28.10;36.80;;;;;;5058086;28;20048;-73
2022/06/22 13:31:40;;;;;;;2.50;1.23;;;28.10;37.20;;;;;;5055753;28;20488;-73
2022/06/22 13:34:46;;;;;;;5.45;1.23;;;28.00;37.70;;;;;;5041951;28;20049;-71
2022/06/22 13:37:23;;;;;;;2.40;1.27;;;28.00;37.70;;;;;;5053877;28;20044;-72
2022/06/22 13:40:03;;;;;;;3.70;1.35;;;28.00;38.00;;;;;;5047355;28;20653;-70
2022/06/22 13:43:08;;;;;;;3.00;1.48;;;27.90;38.20;;;;;;5048752;28;20073;-73
2022/06/22 13:45:49;;;;;;;3.50;1.75;;;27.90;38.10;;;;;;5039882;28;20125;-72
2022/06/22 13:48:22;;;;;;;5.80;2.00;;;28.00;37.70;;;;;;5055425;28;20502;-70
2022/06/22 13:51:29;;;;;;;4.55;1.85;;;28.00;37.90;;;;;;5055419;28;20045;-73
2022/06/22 13:54:14;;;;;;;3.08;1.50;;;27.90;37.60;;;;;;5039654;28;20063;-70
2022/06/22 13:56:57;;;;;;;4.30;1.90;;;27.90;37.10;;;;;;5054721;28;20040;-74
2022/06/22 13:59:32;;;;;;;4.32;1.35;;;27.90;37.40;;;;;;5049264;28;20099;-70
2022/06/22 14:02:15;;;;;;;4.25;1.58;;;27.90;37.60;;;;;;5043047;28;20102;-70
2022/06/22 14:04:47;;;;;;;5.47;1.52;;;27.90;37.70;;;;;;5042370;28;20064;-71
2022/06/22 14:07:22;;;;;;;7.18;1.80;;;28.00;37.30;;;;;;5055728;28;20045;-69
2022/06/22 14:09:57;;;;;;;5.40;1.90;;;28.00;37.20;;;;;;5053794;28;21244;-70
2022/06/22 14:12:29;;;;;;;3.42;1.15;;;28.00;36.50;;;;;;5052531;28;20055;-73
2022/06/22 14:15:03;;;;;;;4.10;1.05;;;28.10;36.30;;;;;;5046855;28;20064;-70
2022/06/22 14:17:36;;;;;;;2.42;1.10;;;28.10;36.90;;;;;;5048292;28;20049;-69
2022/06/22 14:20:16;;;;;;;3.33;1.05;;;28.10;37.00;;;;;;5051580;28;20500;-71
2022/06/22 14:22:49;;;;;;;3.13;1.13;;;28.10;37.30;;;;;;5057223;28;20505;-72
2022/06/22 14:25:27;;;;;;;5.68;1.10;;;28.00;37.00;;;;;;5057011;28;20576;-73
2022/06/22 14:28:00;;;;;;;2.42;1.00;;;28.00;37.00;;;;;;5055718;28;20044;-69
2022/06/22 14:30:40;;;;;;;2.00;1.05;;;28.00;36.90;;;;;;5057199;28;20540;-74
2022/06/22 14:33:18;;;;;;;;;;;28.00;37.00;;;;;;5057278;28;20041;-70
2022/06/22 14:36:10;;;;;;;3.50;1.20;;;28.10;36.90;;;;;;5051218;28;19928;-71
2022/06/22 14:38:47;;;;;;;3.28;1.23;;;28.20;36.80;;;;;;5051722;28;20063;-71
2022/06/22 14:41:24;;;;;;;1.88;0.90;;;28.20;36.10;;;;;;5047480;28;20057;-72
2022/06/22 14:44:03;;;;;;;2.08;0.98;;;28.20;36.50;;;;;;5047134;28;20497;-69
2022/06/22 14:46:35;;;;;;;;;;;28.10;37.00;;;;;;5045644;28;20094;-71
2022/06/22 14:49:13;;;;;;;2.65;1.20;;;28.10;37.20;;;;;;5044224;28;19920;-72
2022/06/22 14:51:47;;;;;;;1.92;1.10;;;28.00;37.50;;;;;;5053069;28;20058;-71